Time;durP1;ratioP1;P1;durP2;ratioP2;P2;SDS_P1;SDS_P2;PMS_P1;PMS_P2;Temp;Humidity;BMP_temperature;BMP_pressure;BME280_temperature;BME280_humidity;BME280_pressure;Samples;Min_cycle;Max_cycle;Signal;HPM_P1;HPM_P2
2022/05/07 05:32:32;;;;;;;11.32;6.45;;;;;;;11.78;100.00;98714.91;5059502;28;20382;-58
2022/05/07 05:34:57;;;;;;;13.02;7.05;;;;;;;12.00;100.00;98742.31;5058242;28;20052;-58
2022/05/07 05:37:23;;;;;;;11.30;6.32;;;;;;;11.96;100.00;98731.38;5045663;28;20567;-59
2022/05/07 05:39:49;;;;;;;9.65;5.85;;;;;;;11.99;100.00;98722.41;5018726;28;20127;-59
2022/05/07 05:42:15;;;;;;;9.32;5.72;;;;;;;12.29;100.00;98760.28;5044532;28;20400;-59
2022/05/07 05:44:41;;;;;;;12.80;6.68;;;;;;;12.39;100.00;98762.78;5048343;28;20029;-60
2022/05/07 05:47:08;;;;;;;9.40;5.88;;;;;;;12.45;100.00;98760.41;5048783;28;20417;-59
2022/05/07 05:49:34;;;;;;;11.13;6.30;;;;;;;12.50;100.00;98758.16;5046234;28;20462;-58
2022/05/07 05:52:04;;;;;;;10.05;6.15;;;;;;;12.57;100.00;98758.34;5053535;28;20656;-58
2022/05/07 05:54:30;;;;;;;10.02;5.88;;;;;;;12.62;100.00;98752.69;5056530;28;20041;-60
2022/05/07 05:56:56;;;;;;;8.98;5.72;;;;;;;12.66;100.00;98759.22;5050743;28;20021;-58
2022/05/07 05:59:22;;;;;;;8.50;5.57;;;;;;;12.59;100.00;98756.41;5056428;28;20048;-59
2022/05/07 06:01:47;;;;;;;7.57;4.80;;;;;;;12.42;100.00;98728.59;5058027;28;20053;-58
2022/05/07 06:04:14;;;;;;;7.72;4.70;;;;;;;12.46;100.00;98715.09;5061501;28;20503;-59
2022/05/07 06:06:40;;;;;;;8.13;5.00;;;;;;;12.74;100.00;98753.22;5053910;28;20036;-58
2022/05/07 06:09:05;;;;;;;8.05;4.80;;;;;;;12.82;100.00;98761.91;5049490;28;20024;-58
2022/05/07 06:11:31;;;;;;;7.45;4.45;;;;;;;12.81;100.00;98749.03;5056924;28;20395;-59
2022/05/07 06:13:56;;;;;;;8.52;5.07;;;;;;;12.90;100.00;98766.34;5034172;28;20104;-59
2022/05/07 06:16:21;;;;;;;8.10;4.68;;;;;;;12.95;100.00;98761.50;5057409;28;20024;-59
2022/05/07 06:18:47;;;;;;;8.73;5.28;;;;;;;13.05;100.00;98761.34;5050566;28;20111;-59
2022/05/07 06:21:12;;;;;;;9.57;5.47;;;;;;;13.01;100.00;98760.84;5051451;28;20056;-59
2022/05/07 06:23:38;;;;;;;10.25;5.90;;;;;;;12.84;100.00;98728.66;5037717;28;20038;-59
2022/05/07 06:28:47;;;;;;;8.75;4.80;;;;;;;13.17;100.00;98756.69;5047821;28;20070;-59
2022/05/07 06:31:13;;;;;;;8.30;5.25;;;;;;;13.21;100.00;98750.16;5044860;28;20037;-62
2022/05/07 06:33:38;;;;;;;9.10;4.88;;;;;;;13.39;100.00;98769.19;5047623;28;20040;-59
2022/05/07 06:36:08;;;;;;;9.50;5.45;;;;;;;13.40;100.00;98762.19;5084011;28;20111;-58
2022/05/07 06:38:34;;;;;;;9.52;5.57;;;;;;;13.34;100.00;98750.56;5043626;28;20048;-59
2022/05/07 06:41:02;;;;;;;9.43;5.32;;;;;;;13.37;100.00;98758.09;5045614;28;20315;-56
2022/05/07 06:43:34;;;;;;;8.30;5.60;;;;;;;13.15;100.00;98735.16;5034977;28;20290;-59
2022/05/07 06:46:00;;;;;;;7.45;4.75;;;;;;;13.37;100.00;98770.34;5071770;28;20029;-58
2022/05/07 06:48:26;;;;;;;7.80;4.97;;;;;;;13.51;100.00;98772.34;5035448;28;20029;-59
2022/05/07 06:50:53;;;;;;;8.15;5.03;;;;;;;13.58;100.00;98769.88;5061341;28;20029;-59
2022/05/07 06:53:18;;;;;;;7.63;4.68;;;;;;;13.53;100.00;98762.53;5030555;28;20040;-59
2022/05/07 06:55:56;;;;;;;8.43;4.93;;;;;;;13.62;99.52;98773.84;5063206;28;20041;-58
2022/05/07 06:58:41;;;;;;;7.82;4.63;;;;;;;13.56;98.47;98769.22;5021909;28;20111;-58
2022/05/07 07:01:07;;;;;;;8.73;5.05;;;;;;;13.65;98.92;98771.72;5032142;28;20025;-58
2022/05/07 07:03:33;;;;;;;8.85;5.63;;;;;;;13.74;98.95;98767.28;5038960;28;20498;-59
2022/05/07 07:05:59;;;;;;;9.85;6.53;;;;;;;13.88;99.46;98776.31;5036305;28;20025;-58
2022/05/07 07:08:25;;;;;;;12.57;7.00;;;;;;;13.83;100.00;98773.34;5041984;28;20033;-58
2022/05/07 07:10:50;;;;;;;9.45;6.20;;;;;;;13.82;100.00;98769.94;5015881;28;20036;-59
2022/05/07 07:13:16;;;;;;;8.70;5.60;;;;;;;13.85;99.32;98771.41;5038930;28;20029;-59
2022/05/07 07:15:42;;;;;;;8.88;6.00;;;;;;;13.99;98.61;98772.56;5043927;28;20017;-59
2022/05/07 07:18:09;;;;;;;11.00;6.03;;;;;;;14.07;98.64;98774.38;5038325;28;20048;-59
2022/05/07 07:20:37;;;;;;;9.30;5.82;;;;;;;14.09;97.93;98772.41;4997340;28;20174;-59
2022/05/07 07:23:03;;;;;;;8.95;5.90;;;;;;;14.14;98.45;98776.16;5066596;28;20167;-59
2022/05/07 07:25:29;;;;;;;8.10;5.53;;;;;;;14.22;97.58;98767.50;5039513;28;20096;-59
2022/05/07 07:27:54;;;;;;;9.52;6.10;;;;;;;14.09;97.22;98734.03;5040037;28;20032;-59
2022/05/07 07:30:19;;;;;;;7.50;4.90;;;;;;;14.29;96.15;98775.50;5040768;28;20120;-59
2022/05/07 07:32:45;;;;;;;7.50;4.88;;;;;;;14.15;95.24;98743.81;5041972;28;20150;-59
2022/05/07 07:35:10;;;;;;;8.60;5.40;;;;;;;14.32;95.00;98767.34;5042967;28;20029;-59
2022/05/07 07:37:36;;;;;;;8.48;4.72;;;;;;;14.44;93.73;98766.03;5039651;28;20103;-59
2022/05/07 07:40:02;;;;;;;8.05;5.13;;;;;;;14.47;94.98;98770.09;5023098;28;20030;-59
2022/05/07 07:42:27;;;;;;;8.25;5.15;;;;;;;14.52;94.33;98770.41;5039099;28;20029;-59
2022/05/07 07:47:57;;;;;;;8.00;4.45;;;;;;;14.64;90.71;98771.75;4994776;28;20137;-59
2022/05/07 07:50:24;;;;;;;7.30;4.00;;;;;;;14.71;91.05;98770.09;5031803;28;20049;-59
2022/05/07 07:52:53;;;;;;;7.53;4.00;;;;;;;14.41;90.17;98727.09;5031250;28;20124;-59
2022/05/07 07:55:19;;;;;;;7.97;4.45;;;;;;;14.62;90.20;98771.09;4989890;28;21661;-59
2022/05/07 07:57:45;;;;;;;6.90;4.10;;;;;;;14.72;90.26;98770.91;5026907;28;20460;-58
2022/05/07 08:00:12;;;;;;;8.05;4.43;;;;;;;14.67;90.69;98779.25;5017345;28;20579;-59
2022/05/07 08:03:11;;;;;;;8.13;4.75;;;;;;;14.79;90.28;98780.53;5016854;28;20033;-59
2022/05/07 08:05:37;;;;;;;8.45;5.10;;;;;;;14.69;90.71;98753.72;5024215;28;20094;-59
2022/05/07 08:13:34;;;;;;;8.18;4.65;;;;;;;14.73;89.04;98741.13;5040387;28;20573;-59
2022/05/07 08:16:01;;;;;;;8.18;4.93;;;;;;;15.01;88.11;98780.00;5033077;28;20029;-59
2022/05/07 08:18:26;;;;;;;7.60;4.82;;;;;;;14.97;88.43;98775.09;4954586;28;20040;-59
2022/05/07 08:20:52;;;;;;;7.60;5.20;;;;;;;14.99;87.53;98774.91;5022288;28;20620;-59
2022/05/07 08:23:17;;;;;;;7.63;4.80;;;;;;;15.01;88.16;98778.19;5017678;28;20024;-60
2022/05/07 08:25:43;;;;;;;7.85;4.80;;;;;;;15.07;87.53;98769.63;5015375;28;20056;-59
2022/05/07 08:28:08;;;;;;;6.80;4.25;;;;;;;15.07;86.71;98774.88;5025798;28;20017;-59
2022/05/07 08:30:36;;;;;;;7.95;4.90;;;;;;;14.90;86.66;98740.09;5030226;28;20036;-58
2022/05/07 08:33:02;;;;;;;7.47;4.22;;;;;;;15.19;86.23;98777.97;5023221;28;20116;-58
2022/05/07 08:35:27;;;;;;;7.10;4.22;;;;;;;14.94;85.05;98751.03;5024294;28;20058;-59
2022/05/07 08:37:53;;;;;;;7.10;3.95;;;;;;;15.11;84.82;98778.81;5026442;28;20083;-59
2022/05/07 08:40:19;;;;;;;7.55;4.28;;;;;;;14.97;85.43;98745.47;5056189;28;20021;-60
2022/05/07 08:42:44;;;;;;;8.13;4.65;;;;;;;15.17;84.83;98780.75;5022206;28;20533;-59
2022/05/07 08:45:12;;;;;;;7.78;4.50;;;;;;;15.14;85.47;98775.03;5027899;28;20078;-59
2022/05/07 08:47:38;;;;;;;9.18;4.70;;;;;;;15.08;85.65;98767.84;5027293;28;20044;-59
2022/05/07 08:50:07;;;;;;;8.85;4.72;;;;;;;15.12;84.79;98772.56;5031746;28;20067;-59
2022/05/07 08:52:32;;;;;;;6.53;4.13;;;;;;;15.22;85.09;98780.22;5029560;28;21391;-58
2022/05/07 08:54:58;;;;;;;6.68;4.28;;;;;;;15.29;84.28;98775.94;5018953;28;20029;-59
2022/05/07 08:57:24;;;;;;;6.60;4.20;;;;;;;15.39;84.49;98780.97;5026358;28;20076;-59
2022/05/07 08:59:53;;;;;;;8.48;4.57;;;;;;;15.41;83.95;98784.25;5024243;28;20021;-59
2022/05/07 09:02:20;;;;;;;7.28;4.55;;;;;;;15.45;83.31;98774.22;5044709;28;20033;-59
2022/05/07 09:04:58;;;;;;;7.28;4.53;;;;;;;15.45;83.20;98769.00;5034906;28;20074;-59
2022/05/07 09:07:24;;;;;;;8.98;5.00;;;;;;;15.51;83.31;98771.72;5028492;28;20488;-59
2022/05/07 09:09:51;;;;;;;6.88;4.30;;;;;;;15.54;83.27;98771.38;5025896;28;20040;-59
2022/05/07 09:12:29;;;;;;;6.68;4.10;;;;;;;15.58;82.48;98756.94;5066500;28;20036;-59
2022/05/07 09:15:00;;;;;;;6.55;3.97;;;;;;;15.53;82.01;98738.31;5030115;28;20029;-59
2022/05/07 09:17:26;;;;;;;7.03;4.07;;;;;;;15.76;82.11;98761.94;5047629;28;20142;-60
2022/05/07 09:19:51;;;;;;;7.22;3.97;;;;;;;15.64;80.50;98750.19;5027552;28;20131;-60
2022/05/07 09:22:17;;;;;;;6.53;4.10;;;;;;;15.70;80.73;98732.97;5031865;28;20041;-59
2022/05/07 09:24:52;;;;;;;6.32;3.88;;;;;;;15.94;80.26;98764.28;5023886;28;21491;-59
2022/05/07 09:27:18;;;;;;;6.68;3.80;;;;;;;15.93;79.78;98764.44;4991612;28;20032;-60
2022/05/07 09:29:44;;;;;;;7.40;4.35;;;;;;;16.03;78.85;98767.66;5040606;28;20096;-59
2022/05/07 09:32:15;;;;;;;6.85;4.07;;;;;;;16.05;78.88;98768.28;5023150;28;20040;-59
2022/05/07 09:37:38;;;;;;;7.22;4.18;;;;;;;15.99;78.81;98721.81;5039873;28;20047;-59
2022/05/07 09:40:13;;;;;;;6.80;3.90;;;;;;;16.29;78.58;98754.16;5034109;28;20033;-59
2022/05/07 09:42:39;;;;;;;7.22;4.05;;;;;;;16.13;78.14;98713.13;5033350;28;20078;-60
2022/05/07 09:45:06;;;;;;;7.13;4.28;;;;;;;16.38;79.03;98756.72;5025737;28;20406;-60
2022/05/07 09:47:32;;;;;;;7.68;4.00;;;;;;;16.42;77.99;98752.72;5042078;28;20447;-59
2022/05/07 09:58:15;;;;;;;7.22;4.05;;;;;;;16.58;77.31;98743.88;5034575;28;20073;-60
2022/05/07 10:01:04;;;;;;;9.15;4.70;;;;;;;16.65;76.89;98742.97;5040226;28;20053;-59
2022/05/07 10:03:46;;;;;;;7.57;4.07;;;;;;;16.58;76.04;98705.31;5040028;28;20021;-59
2022/05/07 10:06:24;;;;;;;6.57;4.07;;;;;;;16.81;76.16;98734.13;5038736;28;20040;-60
2022/05/07 10:09:11;;;;;;;5.85;3.40;;;;;;;16.62;74.29;98690.03;5040586;28;20035;-59
2022/05/07 10:11:37;;;;;;;6.20;3.60;;;;;;;16.98;74.04;98734.75;5038519;28;20124;-60
2022/05/07 10:14:03;;;;;;;5.75;3.30;;;;;;;17.09;73.08;98725.59;5038690;28;20033;-59
2022/05/07 10:16:30;;;;;;;6.10;3.80;;;;;;;17.22;73.01;98724.94;5024701;28;20540;-60
2022/05/07 10:18:55;;;;;;;6.47;3.92;;;;;;;17.22;73.66;98706.56;5037604;28;20091;-59
2022/05/07 10:21:21;;;;;;;6.47;3.83;;;;;;;17.19;73.84;98723.47;5044589;28;20029;-60
2022/05/07 10:23:56;;;;;;;6.47;4.22;;;;;;;16.92;71.06;98685.59;5043597;28;20096;-59
2022/05/07 10:26:43;;;;;;;6.57;3.67;;;;;;;17.12;72.01;98712.06;5044952;28;20443;-60
2022/05/07 10:29:24;;;;;;;7.35;4.00;;;;;;;17.19;72.03;98709.53;5040933;28;20736;-59
2022/05/07 10:31:50;;;;;;;7.28;3.95;;;;;;;17.22;71.45;98702.09;5044433;28;20071;-59
2022/05/07 10:34:25;;;;;;;5.68;3.28;;;;;;;17.23;71.11;98700.28;5042732;28;20029;-59
2022/05/07 10:37:04;;;;;;;6.10;3.45;;;;;;;17.36;71.45;98696.97;5042327;28;20033;-60
2022/05/07 10:39:31;;;;;;;5.55;3.00;;;;;;;17.38;71.31;98703.69;5042143;28;20254;-59
2022/05/07 10:41:57;;;;;;;5.70;3.30;;;;;;;17.50;70.65;98704.00;5027289;28;20032;-60
2022/05/07 10:44:31;;;;;;;5.65;3.10;;;;;;;17.23;70.50;98666.13;5043670;28;20040;-60
2022/05/07 10:47:08;;;;;;;5.85;3.50;;;;;;;17.38;69.16;98669.53;5047734;28;20025;-60
2022/05/07 10:49:33;;;;;;;6.03;3.53;;;;;;;17.51;70.04;98692.50;5040671;28;20036;-60
2022/05/07 10:52:03;;;;;;;6.03;3.50;;;;;;;17.60;70.22;98694.00;5044784;28;20033;-59
2022/05/07 10:54:28;;;;;;;;;;;;;;;17.68;71.04;98688.59;5044898;28;20032;-59
2022/05/07 10:56:55;;;;;;;6.40;3.45;;;;;;;17.67;68.18;98658.06;5007703;28;19966;-60
2022/05/07 10:59:21;;;;;;;5.45;3.30;;;;;;;17.74;68.29;98679.19;5044247;28;20091;-60
2022/05/07 11:01:47;;;;;;;6.30;3.80;;;;;;;17.84;68.87;98684.09;5031678;28;20044;-59
2022/05/07 11:04:14;;;;;;;5.15;3.03;;;;;;;17.75;67.65;98674.72;5033845;28;20499;-59
2022/05/07 11:06:40;;;;;;;5.70;3.13;;;;;;;17.89;69.36;98678.28;5028852;28;20033;-59
2022/05/07 11:09:06;;;;;;;6.97;3.35;;;;;;;17.93;68.63;98669.03;5045625;28;20086;-60
2022/05/07 11:11:44;;;;;;;6.60;3.53;;;;;;;17.92;68.94;98641.09;5038356;28;20620;-61
2022/05/07 11:14:10;;;;;;;5.68;3.33;;;;;;;18.12;67.32;98676.25;5042369;28;20032;-60
2022/05/07 11:16:40;;;;;;;7.47;3.20;;;;;;;18.00;68.24;98670.69;5042606;28;20132;-58
2022/05/07 11:19:06;;;;;;;5.32;3.15;;;;;;;17.96;68.07;98672.09;5013782;28;20030;-58
2022/05/07 11:21:36;;;;;;;4.97;2.88;;;;;;;17.88;66.90;98666.16;5045192;28;20036;-58
2022/05/07 11:24:02;;;;;;;4.60;2.53;;;;;;;17.88;67.82;98672.22;5042426;28;20117;-58
2022/05/07 11:26:27;;;;;;;4.82;2.65;;;;;;;17.92;65.19;98668.19;5044039;28;20115;-58
2022/05/07 11:28:53;;;;;;;4.70;2.60;;;;;;;17.93;66.91;98661.13;5042828;28;20105;-57
2022/05/07 11:31:29;;;;;;;5.10;2.85;;;;;;;17.89;67.35;98657.25;5027003;28;20051;-58
2022/05/07 11:34:00;;;;;;;5.40;2.90;;;;;;;17.90;66.34;98654.44;5025710;28;20033;-58
2022/05/07 11:36:26;;;;;;;4.88;2.60;;;;;;;17.88;67.38;98651.19;5044321;28;20063;-58
2022/05/07 11:39:00;;;;;;;5.97;2.67;;;;;;;17.98;66.17;98648.19;5024557;28;20063;-58
2022/05/07 11:41:26;;;;;;;5.10;2.42;;;;;;;18.00;67.45;98640.97;5022755;28;20037;-58
2022/05/07 11:46:51;;;;;;;5.25;2.42;;;;;;;18.08;65.60;98647.88;5025250;28;20079;-58
2022/05/07 11:49:30;;;;;;;4.10;2.08;;;;;;;18.14;64.60;98628.69;5031509;28;20543;-58
2022/05/07 11:52:11;;;;;;;4.50;2.15;;;;;;;18.31;63.15;98642.34;5025595;28;20029;-58
2022/05/07 11:54:48;;;;;;;4.95;2.47;;;;;;;18.35;62.72;98643.59;5032584;28;20045;-58
2022/05/07 11:57:14;;;;;;;5.10;2.10;;;;;;;18.40;63.30;98642.00;5031835;28;20041;-58
2022/05/07 11:59:43;;;;;;;4.22;2.03;;;;;;;18.43;62.89;98631.06;5023200;28;20407;-58
2022/05/07 12:02:08;;;;;;;4.93;1.92;;;;;;;18.46;62.05;98634.34;5028625;28;20021;-62
2022/05/07 12:04:34;;;;;;;4.18;1.92;;;;;;;18.41;61.98;98638.34;5025689;28;20025;-58
2022/05/07 12:06:59;;;;;;;3.97;2.00;;;;;;;18.46;62.16;98631.72;5022869;28;20032;-58
2022/05/07 12:09:27;;;;;;;4.25;2.10;;;;;;;18.47;62.65;98633.31;5025012;28;20041;-58
2022/05/07 12:11:52;;;;;;;4.65;2.25;;;;;;;18.48;63.78;98637.59;5030620;28;20025;-57
2022/05/07 12:14:18;;;;;;;4.03;1.90;;;;;;;18.38;63.31;98594.03;5028093;28;20629;-59
2022/05/07 12:19:33;;;;;;;4.28;1.98;;;;;;;18.59;63.12;98629.13;5030986;28;20043;-59
2022/05/07 12:30:14;;;;;;;4.35;2.00;;;;;;;18.56;63.32;98629.53;5021713;28;20231;-59
2022/05/07 12:32:43;;;;;;;4.47;2.30;;;;;;;18.44;63.15;98614.28;5038365;28;20509;-59
2022/05/07 12:35:09;;;;;;;4.40;2.30;;;;;;;18.47;63.66;98613.06;5033560;28;20052;-59
2022/05/07 12:37:35;;;;;;;4.38;2.28;;;;;;;18.29;64.20;98586.47;5035560;28;20501;-58
2022/05/07 12:40:01;;;;;;;5.82;2.40;;;;;;;18.62;63.39;98621.66;5035995;28;20468;-58
2022/05/07 12:42:26;;;;;;;4.28;2.22;;;;;;;18.69;63.01;98620.88;5033546;28;20017;-58
2022/05/07 12:44:51;;;;;;;4.53;2.38;;;;;;;18.60;62.40;98584.19;5029791;28;20029;-58
2022/05/07 12:47:18;;;;;;;5.10;2.55;;;;;;;18.85;63.20;98606.56;5061933;28;20021;-59
2022/05/07 12:49:44;;;;;;;4.95;2.30;;;;;;;18.83;63.00;98593.59;5024873;28;20033;-58
2022/05/07 12:52:10;;;;;;;4.68;2.50;;;;;;;18.94;62.46;98602.75;5009963;28;20093;-59
2022/05/07 12:54:36;;;;;;;6.18;3.10;;;;;;;18.75;61.70;98577.97;5003380;28;20124;-58
2022/05/07 12:57:02;;;;;;;4.57;2.47;;;;;;;19.00;62.26;98600.13;5022547;28;20032;-58
2022/05/07 12:59:29;;;;;;;4.70;2.60;;;;;;;18.97;62.05;98605.81;5024595;28;20029;-58
2022/05/07 13:01:56;;;;;;;4.50;2.33;;;;;;;18.92;61.85;98600.31;5027954;28;20017;-59
2022/05/07 13:04:24;;;;;;;4.40;2.45;;;;;;;18.88;62.39;98608.81;5027932;28;20033;-60
2022/05/07 13:06:51;;;;;;;5.63;2.55;;;;;;;18.91;62.04;98598.69;5025142;28;20025;-62
2022/05/07 13:09:17;;;;;;;5.18;2.95;;;;;;;18.96;61.48;98601.53;5057071;28;20030;-62
2022/05/07 13:11:43;;;;;;;5.30;3.05;;;;;;;19.04;62.19;98599.72;5036455;28;20082;-62
2022/05/07 13:14:08;;;;;;;9.00;3.67;;;;;;;19.08;61.01;98590.44;5023752;28;20033;-62
2022/05/07 13:16:35;;;;;;;6.07;3.55;;;;;;;18.97;62.60;98579.44;5017773;28;20033;-62
2022/05/07 13:19:00;;;;;;;6.63;3.90;;;;;;;19.02;62.55;98589.41;5028390;28;20119;-62
2022/05/07 13:21:26;;;;;;;6.32;3.85;;;;;;;19.07;62.46;98592.22;5033241;28;20039;-63
2022/05/07 13:23:51;;;;;;;6.13;3.60;;;;;;;19.13;62.25;98598.53;5040053;28;20033;-62
2022/05/07 13:26:16;;;;;;;6.65;3.67;;;;;;;19.05;62.29;98596.09;5038608;28;20047;-62
2022/05/07 13:28:42;;;;;;;6.30;3.50;;;;;;;19.13;62.97;98591.44;5023861;28;20083;-62
2022/05/07 13:31:07;;;;;;;7.00;4.15;;;;;;;19.04;62.11;98578.66;5037776;28;20025;-62
2022/05/07 13:33:33;;;;;;;7.20;4.10;;;;;;;19.03;61.32;98572.56;5038590;28;20032;-62
2022/05/07 13:35:58;;;;;;;6.60;3.92;;;;;;;18.99;61.52;98576.63;5040560;28;20138;-61
2022/05/07 13:38:24;;;;;;;6.22;4.00;;;;;;;19.01;62.40;98579.88;5034809;28;20411;-63
2022/05/07 13:40:50;;;;;;;6.35;3.65;;;;;;;19.19;61.80;98576.66;5041729;28;20028;-63
2022/05/07 13:43:15;;;;;;;7.07;4.35;;;;;;;19.29;61.70;98577.06;5039535;28;20032;-63
2022/05/07 13:45:41;;;;;;;7.97;4.10;;;;;;;19.47;61.21;98576.44;5043793;28;20565;-62
2022/05/07 13:48:07;;;;;;;7.30;4.45;;;;;;;19.51;60.74;98584.78;5040510;28;20052;-63
2022/05/07 13:50:33;;;;;;;6.53;4.13;;;;;;;19.34;61.85;98579.91;5041580;28;20029;-63
2022/05/07 13:52:59;;;;;;;7.45;4.70;;;;;;;19.22;61.09;98578.91;5045200;28;20055;-63
2022/05/07 13:55:24;;;;;;;6.32;4.38;;;;;;;19.05;61.79;98575.00;5029255;28;20870;-62
2022/05/07 13:57:50;;;;;;;6.55;4.53;;;;;;;18.93;62.87;98587.94;5043371;28;20636;-61
2022/05/07 14:00:16;;;;;;;7.30;4.47;;;;;;;18.85;62.97;98567.88;5024311;28;20047;-62
2022/05/07 14:02:43;;;;;;;8.65;4.95;;;;;;;18.82;63.68;98570.91;5028079;28;20472;-63
2022/05/07 14:05:09;;;;;;;6.72;4.65;;;;;;;18.74;63.41;98577.13;5047173;28;20562;-63
2022/05/07 14:07:34;;;;;;;8.20;4.65;;;;;;;18.83;63.14;98569.88;5040201;28;20033;-62
2022/05/07 14:10:00;;;;;;;8.32;4.95;;;;;;;18.82;62.89;98571.72;5042468;28;20032;-63
2022/05/07 14:12:25;;;;;;;7.03;4.68;;;;;;;18.90;63.87;98572.56;5043776;28;20224;-63
2022/05/07 14:14:51;;;;;;;7.65;5.30;;;;;;;18.83;63.36;98569.88;5044270;28;20719;-63
2022/05/07 14:17:16;;;;;;;7.28;5.03;;;;;;;18.86;63.09;98574.78;5045677;28;20152;-63
2022/05/07 14:19:42;;;;;;;9.18;5.28;;;;;;;18.88;63.58;98575.38;5036664;28;20025;-63
2022/05/07 14:22:08;;;;;;;9.07;6.35;;;;;;;18.70;63.46;98540.88;5047944;28;20025;-63
2022/05/07 14:24:34;;;;;;;8.90;6.35;;;;;;;18.96;63.78;98577.81;5050352;28;20204;-62
2022/05/07 14:27:00;;;;;;;9.63;6.20;;;;;;;18.76;64.59;98569.03;5044274;28;20108;-62
2022/05/07 14:29:26;;;;;;;9.00;6.50;;;;;;;18.75;64.26;98570.84;5028089;28;20056;-63
2022/05/07 14:31:52;;;;;;;10.20;6.80;;;;;;;18.70;65.17;98564.56;5043793;28;20089;-63
2022/05/07 14:34:18;;;;;;;8.75;6.20;;;;;;;18.79;65.06;98573.91;5045519;28;20025;-63
2022/05/07 14:36:44;;;;;;;9.55;6.63;;;;;;;18.73;64.35;98569.44;5046940;28;20025;-63
2022/05/07 14:39:09;;;;;;;9.82;6.60;;;;;;;18.73;64.31;98570.25;5036468;28;20100;-63
2022/05/07 14:41:35;;;;;;;9.32;6.25;;;;;;;18.76;64.18;98574.28;5049791;28;20505;-63
2022/05/07 14:44:00;;;;;;;10.00;7.03;;;;;;;18.69;63.93;98579.56;5041422;28;20045;-63
2022/05/07 14:46:26;;;;;;;9.85;7.15;;;;;;;18.62;64.16;98581.34;5042770;28;20127;-63
2022/05/07 14:48:52;;;;;;;9.35;6.63;;;;;;;18.55;64.69;98583.97;5044440;28;20482;-63
2022/05/07 14:51:17;;;;;;;9.25;6.50;;;;;;;18.55;65.17;98597.13;5043711;28;20401;-63
2022/05/07 14:53:46;;;;;;;9.32;6.72;;;;;;;18.42;63.82;98584.72;5039699;28;20046;-63
2022/05/07 14:56:13;;;;;;;9.35;6.63;;;;;;;18.36;65.99;98585.50;5048192;28;20101;-63
2022/05/07 14:58:40;;;;;;;8.98;6.60;;;;;;;18.18;68.76;98575.50;5026789;28;20025;-63
2022/05/07 15:01:06;;;;;;;11.23;7.45;;;;;;;18.03;72.86;98570.38;5044859;28;20032;-63
2022/05/07 15:03:34;;;;;;;10.48;7.20;;;;;;;17.92;73.51;98573.50;5025646;28;20103;-62
2022/05/07 15:06:00;;;;;;;13.25;7.45;;;;;;;17.91;73.51;98566.63;5024355;28;20022;-63
2022/05/07 15:11:11;;;;;;;11.25;7.88;;;;;;;17.63;79.31;98569.22;5045973;28;20043;-63
2022/05/07 15:13:37;;;;;;;11.38;7.60;;;;;;;17.45;79.39;98573.16;5026286;28;20071;-63
2022/05/07 15:16:02;;;;;;;10.27;6.93;;;;;;;17.48;77.99;98564.06;5043483;28;20025;-62
2022/05/07 15:18:28;;;;;;;9.93;6.93;;;;;;;17.42;78.99;98576.16;5044092;28;20744;-63
2022/05/07 15:20:53;;;;;;;9.32;7.30;;;;;;;17.27;75.69;98588.56;5041482;28;20060;-62
2022/05/07 15:23:19;;;;;;;9.40;7.07;;;;;;;17.23;77.46;98576.78;5036663;28;20648;-63
2022/05/07 15:25:45;;;;;;;9.70;7.25;;;;;;;17.22;79.24;98573.34;5026152;28;20032;-63
2022/05/07 15:28:10;;;;;;;10.70;7.32;;;;;;;17.24;78.86;98579.22;5032302;28;20485;-63
2022/05/07 15:30:36;;;;;;;10.57;7.13;;;;;;;17.15;77.85;98587.44;5028004;28;20049;-63
2022/05/07 15:38:31;;;;;;;8.65;6.10;;;;;;;17.01;77.57;98589.94;5053276;28;20065;-63
2022/05/07 15:40:56;;;;;;;8.55;6.20;;;;;;;16.94;77.58;98588.22;5034937;28;20056;-63
2022/05/07 15:43:22;;;;;;;8.80;6.25;;;;;;;16.79;77.55;98589.03;5036768;28;20112;-63
2022/05/07 15:45:48;;;;;;;8.35;6.25;;;;;;;16.75;77.84;98593.03;5025753;28;20025;-62
2022/05/07 15:48:14;;;;;;;8.73;5.68;;;;;;;16.77;77.57;98587.63;5026215;28;20033;-62
2022/05/07 15:50:40;;;;;;;9.45;6.68;;;;;;;16.68;76.91;98595.63;5027780;28;20029;-63
2022/05/07 15:53:06;;;;;;;9.45;6.45;;;;;;;16.69;78.02;98589.34;5011194;28;20043;-62
2022/05/07 15:55:34;;;;;;;8.23;6.07;;;;;;;16.68;78.36;98594.78;5015085;28;20029;-62
2022/05/07 15:58:00;;;;;;;8.98;6.03;;;;;;;16.70;77.12;98592.78;5024950;28;20025;-63
2022/05/07 16:00:26;;;;;;;8.90;6.40;;;;;;;16.64;78.42;98598.78;5035851;28;20033;-62
2022/05/07 16:02:52;;;;;;;8.88;6.00;;;;;;;16.40;78.06;98561.34;5028882;28;20031;-63
2022/05/07 16:05:17;;;;;;;8.40;5.90;;;;;;;16.62;77.49;98593.72;5029432;28;20029;-62
2022/05/07 16:07:43;;;;;;;8.68;6.20;;;;;;;16.59;77.96;98588.00;5047443;28;20071;-62
2022/05/07 16:10:09;;;;;;;8.27;5.95;;;;;;;16.44;77.73;98580.16;5043317;28;20045;-63
2022/05/07 16:12:34;;;;;;;9.10;6.32;;;;;;;16.51;76.89;98595.00;5021860;28;20113;-62
2022/05/07 16:15:01;;;;;;;9.40;6.25;;;;;;;16.40;76.82;98581.53;5026816;28;20068;-62
2022/05/07 16:17:28;;;;;;;9.10;6.18;;;;;;;16.57;77.58;98595.25;5022477;28;20044;-62
2022/05/07 16:19:53;;;;;;;8.82;6.25;;;;;;;16.55;77.54;98600.69;5036644;28;20028;-62
2022/05/07 16:25:03;;;;;;;9.00;6.20;;;;;;;16.30;78.55;98603.63;5030265;28;20396;-63
2022/05/07 16:27:29;;;;;;;8.98;6.18;;;;;;;16.36;79.28;98609.13;5011053;28;20036;-62
2022/05/07 16:29:54;;;;;;;9.48;6.47;;;;;;;16.28;80.02;98599.53;5029020;28;20056;-62
2022/05/07 16:32:20;;;;;;;9.50;6.97;;;;;;;16.40;80.07;98602.53;5053271;28;20036;-60
2022/05/07 16:34:46;;;;;;;9.98;6.63;;;;;;;16.38;80.97;98594.84;5027461;28;20032;-62
2022/05/07 16:37:12;;;;;;;10.38;6.90;;;;;;;16.05;80.49;98555.84;5016589;28;20029;-62
2022/05/07 16:39:41;;;;;;;9.43;7.15;;;;;;;16.25;79.93;98600.72;5023999;28;20498;-62
2022/05/07 16:42:07;;;;;;;10.65;7.40;;;;;;;16.28;79.76;98595.13;5030129;28;20039;-62
2022/05/07 16:44:33;;;;;;;9.68;6.43;;;;;;;16.29;79.83;98595.91;5038489;28;20025;-62
2022/05/07 16:46:59;;;;;;;9.50;6.50;;;;;;;16.27;79.16;98598.72;5037133;28;20039;-62
2022/05/07 16:49:30;;;;;;;10.60;7.40;;;;;;;16.15;78.98;98594.91;5025359;28;20039;-62
2022/05/07 16:51:56;;;;;;;10.38;7.20;;;;;;;16.11;79.05;98597.09;5032957;28;20037;-60
2022/05/07 16:54:22;;;;;;;10.98;7.57;;;;;;;16.13;78.62;98599.53;5029214;28;20068;-62
2022/05/07 16:56:48;;;;;;;9.77;7.18;;;;;;;16.02;78.69;98613.91;5027990;28;20516;-62
2022/05/07 16:59:14;;;;;;;10.40;7.35;;;;;;;15.76;79.67;98572.38;5038304;28;20025;-62
